Time;durP1;ratioP1;P1;durP2;ratioP2;P2;SDS_P1;SDS_P2;PMS_P1;PMS_P2;Temp;Humidity;BMP_temperature;BMP_pressure;BME280_temperature;BME280_humidity;BME280_pressure;Samples;Min_cycle;Max_cycle;Signal;HPM_P1;HPM_P2
2023/09/06 00:01:59;;;;;;;11.20;3.70;;;;;;;14.90;63.08;101945.15;107359;1257;99303;-67
2023/09/06 00:04:27;;;;;;;6.90;3.60;;;;;;;14.90;63.52;101943.13;107330;1257;99742;-65
2023/09/06 00:06:56;;;;;;;7.10;4.00;;;;;;;14.89;63.53;101941.42;107368;1254;112245;-67
2023/09/06 00:09:24;;;;;;;5.10;2.90;;;;;;;14.88;63.73;101941.72;107352;1257;109882;-65
2023/09/06 00:11:52;;;;;;;6.90;3.20;;;;;;;14.84;63.71;101945.07;107315;1254;109167;-64
2023/09/06 00:14:20;;;;;;;4.80;3.60;;;;;;;14.80;63.92;101942.73;107304;1257;99192;-66
2023/09/06 00:16:49;;;;;;;5.90;3.40;;;;;;;14.78;63.91;101943.30;107342;1257;99845;-65
2023/09/06 00:19:17;;;;;;;7.60;3.50;;;;;;;14.77;64.35;101942.32;107172;1257;113715;-65
2023/09/06 00:21:47;;;;;;;9.90;3.90;;;;;;;14.76;64.41;101944.52;107318;1257;109658;-65
2023/09/06 00:24:15;;;;;;;11.40;3.00;;;;;;;14.76;64.44;101946.34;107336;1254;108365;-65
2023/09/06 00:26:43;;;;;;;5.60;2.90;;;;;;;14.74;64.46;101944.91;107338;1254;99195;-66
2023/09/06 00:29:12;;;;;;;6.50;3.60;;;;;;;14.74;64.50;101946.77;107392;1257;99726;-65
2023/09/06 00:31:40;;;;;;;6.10;3.00;;;;;;;14.74;64.66;101945.25;107326;1257;113087;-67
2023/09/06 00:34:08;;;;;;;9.80;3.40;;;;;;;14.75;64.78;101941.72;107311;1257;110055;-65
2023/09/06 00:36:36;;;;;;;8.60;4.10;;;;;;;14.74;64.79;101944.02;107269;1254;108557;-67
2023/09/06 00:39:05;;;;;;;9.80;4.90;;;;;;;14.71;65.11;101942.79;107369;1254;99191;-66
2023/09/06 00:41:39;;;;;;;4.90;3.40;;;;;;;14.71;64.84;101941.70;107215;1254;99371;-66
2023/09/06 00:44:08;;;;;;;8.50;3.40;;;;;;;14.74;64.82;101942.23;107333;1260;113620;-66
2023/09/06 00:46:38;;;;;;;13.00;3.50;;;;;;;14.76;64.87;101940.17;107335;1257;109342;-66
2023/09/06 00:49:07;;;;;;;10.20;3.80;;;;;;;14.78;65.08;101940.78;107363;1254;106874;-67
2023/09/06 00:51:36;;;;;;;4.10;3.00;;;;;;;14.76;64.73;101943.82;107300;1260;99230;-66
2023/09/06 00:54:05;;;;;;;13.60;3.50;;;;;;;14.72;65.20;101943.81;107375;1254;99772;-65
2023/09/06 00:56:33;;;;;;;11.60;3.50;;;;;;;14.65;65.06;101947.31;107309;1257;112788;-66
2023/09/06 00:59:01;;;;;;;7.40;3.70;;;;;;;14.58;65.00;101945.53;107372;1254;109601;-66
2023/09/06 01:01:29;;;;;;;12.70;4.20;;;;;;;14.56;65.16;101938.45;107326;1257;108102;-64
2023/09/06 01:03:58;;;;;;;17.60;3.30;;;;;;;14.58;65.18;101943.35;107369;1254;100451;-66
2023/09/06 01:06:30;;;;;;;7.20;3.50;;;;;;;14.58;65.20;101943.15;107396;1257;99057;-65
2023/09/06 01:09:04;;;;;;;8.90;3.80;;;;;;;14.56;65.24;101943.35;107382;1254;112576;-67
2023/09/06 01:11:37;;;;;;;6.70;3.20;;;;;;;14.56;65.32;101946.80;107339;1254;109068;-67
2023/09/06 01:14:05;;;;;;;10.40;4.00;;;;;;;14.53;65.24;101945.06;107298;1259;108222;-66
2023/09/06 01:16:39;;;;;;;5.60;3.40;;;;;;;14.49;65.16;101946.70;107374;1254;99252;-66
2023/09/06 01:19:12;;;;;;;7.70;3.60;;;;;;;14.45;65.18;101943.23;107258;1254;99092;-66
2023/09/06 01:21:59;;;;;;;8.50;3.70;;;;;;;14.39;65.64;101944.25;107317;1254;112740;-67
2023/09/06 01:24:29;;;;;;;4.70;3.20;;;;;;;14.30;65.61;101943.39;107420;1254;109329;-66
2023/09/06 01:26:57;;;;;;;7.70;3.40;;;;;;;14.27;65.72;101942.38;107388;1254;107826;-67
2023/09/06 01:29:29;;;;;;;5.80;3.30;;;;;;;14.24;65.82;101943.92;107324;1254;99304;-67
2023/09/06 01:31:57;;;;;;;10.50;3.40;;;;;;;14.22;66.05;101946.41;107225;1254;99729;-65
2023/09/06 01:34:25;;;;;;;11.40;4.10;;;;;;;14.19;66.06;101943.99;107244;1260;113119;-66
2023/09/06 01:36:55;;;;;;;7.80;3.50;;;;;;;14.16;66.15;101942.98;107449;1254;108575;-66
2023/09/06 01:39:23;;;;;;;4.90;3.00;;;;;;;14.13;66.38;101944.14;107355;1254;107875;-65
2023/09/06 01:41:51;;;;;;;6.30;4.00;;;;;;;14.12;66.61;101944.77;107381;1259;99278;-66
2023/09/06 01:44:19;;;;;;;7.70;3.40;;;;;;;14.11;66.54;101946.32;107250;1254;99256;-66
2023/09/06 01:46:48;;;;;;;13.60;3.70;;;;;;;14.10;66.57;101952.14;107379;1254;112929;-66
2023/09/06 01:49:17;;;;;;;6.70;3.40;;;;;;;14.08;66.49;101954.06;107305;1254;109603;-65
2023/09/06 01:51:45;;;;;;;5.00;3.20;;;;;;;14.07;66.70;101954.75;107339;1257;108363;-66
2023/09/06 01:54:14;;;;;;;7.30;3.50;;;;;;;14.03;67.07;101955.44;107305;1254;99440;-66
2023/09/06 01:56:42;;;;;;;8.70;3.50;;;;;;;14.00;67.07;101956.09;107328;1254;99694;-65
2023/09/06 01:59:10;;;;;;;9.40;3.70;;;;;;;13.96;67.18;101957.13;107269;1254;112999;-66
2023/09/06 02:01:38;;;;;;;7.10;3.30;;;;;;;13.92;67.17;101958.70;107207;1254;109005;-66
2023/09/06 02:04:06;;;;;;;6.80;3.10;;;;;;;13.91;67.18;101962.05;107405;1257;107722;-65
2023/09/06 02:06:35;;;;;;;9.10;4.30;;;;;;;13.89;67.19;101959.85;107382;1254;99163;-66
2023/09/06 02:09:04;;;;;;;9.50;3.40;;;;;;;13.87;67.51;101964.18;107359;1254;99191;-65
2023/09/06 02:11:34;;;;;;;7.10;3.90;;;;;;;13.83;67.61;101963.96;107184;1254;112982;-65
2023/09/06 02:14:02;;;;;;;6.90;3.70;;;;;;;13.81;67.66;101966.33;107311;1254;109956;-66
2023/09/06 02:16:30;;;;;;;5.40;3.60;;;;;;;13.81;67.83;101959.58;107258;1254;107261;-65
2023/09/06 02:18:59;;;;;;;8.60;3.50;;;;;;;13.81;67.91;101961.42;107344;1256;99178;-66
2023/09/06 02:21:28;;;;;;;8.20;3.60;;;;;;;13.79;67.78;101961.41;107331;1256;99737;-65
2023/09/06 02:23:56;;;;;;;5.40;3.60;;;;;;;13.80;67.78;101959.20;107361;1254;112877;-67
2023/09/06 02:26:25;;;;;;;9.30;3.40;;;;;;;13.78;67.95;101960.80;107362;1257;109724;-66
2023/09/06 02:28:53;;;;;;;12.00;3.60;;;;;;;13.73;67.83;101961.89;107331;1257;108088;-65
2023/09/06 02:31:21;;;;;;;5.30;3.70;;;;;;;13.69;68.18;101959.31;107304;1257;99188;-67
2023/09/06 02:33:49;;;;;;;7.60;3.60;;;;;;;13.67;68.07;101959.52;107389;1257;99949;-67
2023/09/06 02:36:18;;;;;;;5.70;3.30;;;;;;;13.66;68.24;101959.41;107390;1254;113147;-64
2023/09/06 02:38:48;;;;;;;7.80;3.60;;;;;;;13.64;68.19;101961.40;107328;1256;109954;-65
2023/09/06 02:41:20;;;;;;;8.30;4.20;;;;;;;13.62;68.18;101961.02;107346;1257;107564;-66
2023/09/06 02:43:49;;;;;;;7.40;4.40;;;;;;;13.60;68.35;101967.29;107155;1254;99295;-66
2023/09/06 02:46:17;;;;;;;5.60;3.90;;;;;;;13.58;68.39;101973.41;107406;1254;99067;-66
2023/09/06 02:48:46;;;;;;;5.00;3.20;;;;;;;13.54;68.69;101974.30;107349;1257;112832;-66
2023/09/06 02:51:15;;;;;;;5.40;3.10;;;;;;;13.48;69.26;101970.66;107351;1257;109884;-66
2023/09/06 02:53:45;;;;;;;4.90;3.40;;;;;;;13.39;69.77;101971.54;107314;1256;107292;-66
2023/09/06 02:56:14;;;;;;;6.10;3.80;;;;;;;13.32;69.33;101970.95;107251;1260;99179;-65
2023/09/06 02:58:42;;;;;;;7.10;3.30;;;;;;;13.30;69.38;101971.16;107404;1257;99767;-67
2023/09/06 03:01:19;;;;;;;6.20;3.70;;;;;;;13.28;69.32;101972.55;107381;1257;113731;-64
2023/09/06 03:03:53;;;;;;;10.20;4.20;;;;;;;13.26;69.35;101972.20;107130;1258;108599;-67
2023/09/06 03:06:32;;;;;;;7.20;3.30;;;;;;;13.23;69.65;101969.90;107375;1254;108483;-64
2023/09/06 03:09:07;;;;;;;9.20;3.90;;;;;;;13.18;69.89;101966.69;107338;1254;99172;-66
2023/09/06 03:11:37;;;;;;;8.30;3.80;;;;;;;13.14;69.92;101970.73;107369;1257;99732;-66
2023/09/06 03:14:05;;;;;;;11.10;5.40;;;;;;;13.11;69.75;101972.08;107282;1254;112217;-66
2023/09/06 03:16:38;;;;;;;7.40;4.00;;;;;;;13.10;69.93;101976.54;107408;1257;109246;-65
2023/09/06 03:19:10;;;;;;;6.20;3.30;;;;;;;13.07;69.92;101977.66;107150;1257;107046;-66
2023/09/06 03:21:40;;;;;;;10.10;4.10;;;;;;;13.00;70.17;101979.08;107388;1256;99204;-67
2023/09/06 03:24:13;;;;;;;7.40;3.40;;;;;;;12.97;70.78;101981.00;107379;1254;99241;-64
2023/09/06 03:26:43;;;;;;;7.30;3.70;;;;;;;12.90;71.16;101982.98;107359;1257;113338;-65
2023/09/06 03:29:15;;;;;;;5.60;3.60;;;;;;;12.82;71.53;101982.30;107355;1256;110124;-66
2023/09/06 03:31:45;;;;;;;7.10;3.70;;;;;;;12.75;71.95;101984.11;107261;1257;106822;-65
2023/09/06 03:34:15;;;;;;;6.70;3.50;;;;;;;12.70;71.99;101986.20;107356;1257;99266;-66
2023/09/06 03:36:46;;;;;;;9.80;4.00;;;;;;;12.68;71.77;101984.70;107395;1254;99182;-65
2023/09/06 03:39:15;;;;;;;6.70;3.10;;;;;;;12.68;71.75;101983.39;107359;1257;112120;-66
2023/09/06 03:41:46;;;;;;;5.00;3.30;;;;;;;12.68;72.02;101987.38;107358;1257;109907;-66
2023/09/06 03:44:16;;;;;;;12.40;4.60;;;;;;;12.67;71.91;101994.14;107344;1254;108422;-66
2023/09/06 03:46:46;;;;;;;7.20;4.00;;;;;;;12.66;71.88;101996.15;107389;1254;99181;-66
2023/09/06 03:49:15;;;;;;;8.80;3.70;;;;;;;12.65;72.07;101999.31;107365;1257;99745;-66
2023/09/06 03:51:44;;;;;;;7.40;3.80;;;;;;;12.64;72.81;102005.90;107311;1257;113640;-65
2023/09/06 03:54:13;;;;;;;7.80;4.00;;;;;;;12.61;72.43;102001.39;107354;1257;109361;-64
2023/09/06 03:56:41;;;;;;;9.00;4.00;;;;;;;12.62;72.57;102004.41;107255;1254;108418;-66
2023/09/06 03:59:11;;;;;;;7.80;4.00;;;;;;;12.64;72.43;102006.80;107287;1257;99178;-65
2023/09/06 04:01:43;;;;;;;9.90;4.20;;;;;;;12.69;72.73;102010.66;107339;1256;99200;-65
2023/09/06 04:04:13;;;;;;;17.00;5.90;;;;;;;12.74;72.64;102011.92;107363;1255;111771;-64
2023/09/06 04:06:45;;;;;;;11.50;4.60;;;;;;;12.80;72.56;102012.52;107306;1260;109670;-66
2023/09/06 04:09:14;;;;;;;9.50;4.50;;;;;;;12.86;72.40;102009.92;107360;1256;107710;-66
2023/09/06 04:11:43;;;;;;;17.00;4.90;;;;;;;12.89;72.22;102013.27;107161;1257;99371;-65
2023/09/06 04:14:11;;;;;;;10.10;4.60;;;;;;;12.94;72.16;102020.13;107277;1257;99284;-66
2023/09/06 04:16:39;;;;;;;9.40;5.90;;;;;;;12.97;72.16;102019.46;107308;1254;113028;-64
2023/09/06 04:19:08;;;;;;;9.60;4.70;;;;;;;12.99;71.96;102017.68;107394;1258;109828;-65
2023/09/06 04:21:37;;;;;;;18.50;6.70;;;;;;;13.04;71.94;102017.52;107313;1254;107623;-67
2023/09/06 04:24:09;;;;;;;10.30;4.40;;;;;;;13.10;71.84;102017.98;107300;1253;99172;-65
2023/09/06 04:26:38;;;;;;;12.80;4.80;;;;;;;13.14;71.61;102014.92;107371;1257;99305;-64
2023/09/06 04:29:07;;;;;;;10.30;4.60;;;;;;;13.16;71.51;102016.36;107139;1260;112518;-66
2023/09/06 04:31:35;;;;;;;12.00;4.90;;;;;;;13.21;71.48;102021.79;107197;1257;109817;-66
2023/09/06 04:34:04;;;;;;;18.20;5.80;;;;;;;13.24;71.36;102024.06;107321;1256;108265;-66
2023/09/06 04:36:36;;;;;;;20.50;5.70;;;;;;;13.26;71.25;102029.48;107193;1256;99196;-66
2023/09/06 04:39:08;;;;;;;19.90;5.50;;;;;;;13.28;71.31;102029.14;107272;1258;99135;-67
2023/09/06 04:41:37;;;;;;;10.90;4.40;;;;;;;13.33;71.23;102030.19;107352;1254;112632;-68
2023/09/06 04:44:07;;;;;;;14.60;5.40;;;;;;;13.38;71.10;102035.18;107370;1254;109108;-65
2023/09/06 04:46:35;;;;;;;13.90;5.40;;;;;;;13.45;71.19;102035.69;107265;1254;107560;-66
2023/09/06 04:49:04;;;;;;;16.60;4.90;;;;;;;13.52;70.94;102037.38;107387;1256;99205;-65
2023/09/06 04:51:33;;;;;;;15.10;5.20;;;;;;;13.58;71.01;102037.23;107253;1257;100161;-65
2023/09/06 04:54:03;;;;;;;8.60;4.90;;;;;;;13.66;70.91;102031.73;107313;1257;112863;-67
2023/09/06 04:56:36;;;;;;;13.10;5.10;;;;;;;13.71;70.74;102036.73;107363;1254;110459;-65
2023/09/06 04:59:04;;;;;;;18.80;10.00;;;;;;;13.67;70.25;102038.98;107334;1254;107306;-63
2023/09/06 05:01:32;;;;;;;11.90;6.30;;;;;;;13.69;70.30;102040.51;107278;1254;99033;-65
2023/09/06 05:04:03;;;;;;;17.70;6.70;;;;;;;13.68;70.06;102041.66;107319;1254;99229;-66
2023/09/06 05:06:31;;;;;;;11.60;5.20;;;;;;;13.64;70.12;102049.16;107411;1254;112168;-66
2023/09/06 05:08:59;;;;;;;14.80;5.90;;;;;;;13.66;70.14;102048.45;107336;1256;109966;-67
2023/09/06 05:11:28;;;;;;;20.70;5.30;;;;;;;13.71;70.06;102054.76;107350;1254;108599;-64
2023/09/06 05:13:56;;;;;;;10.20;5.10;;;;;;;13.70;69.99;102051.05;107199;1257;99304;-66
2023/09/06 05:16:26;;;;;;;11.20;4.60;;;;;;;13.74;69.77;102058.81;107430;1254;99069;-66
2023/09/06 05:18:55;;;;;;;14.60;5.20;;;;;;;13.77;69.57;102062.89;107392;1256;111822;-65
2023/09/06 05:21:26;;;;;;;13.50;5.50;;;;;;;13.81;69.31;102066.91;107407;1257;110178;-68
2023/09/06 05:23:54;;;;;;;10.20;4.80;;;;;;;13.81;69.12;102067.23;107320;1257;107548;-66
2023/09/06 05:26:23;;;;;;;9.40;5.00;;;;;;;13.83;68.97;102073.08;107269;1254;99241;-66
2023/09/06 05:28:52;;;;;;;11.80;4.80;;;;;;;13.85;68.58;102076.52;107323;1257;99239;-66
2023/09/06 05:31:20;;;;;;;14.90;4.80;;;;;;;13.89;68.48;102071.49;107360;1254;113572;-64
2023/09/06 05:33:50;;;;;;;10.00;5.30;;;;;;;13.91;68.33;102073.26;107348;1258;110153;-65
2023/09/06 05:36:20;;;;;;;12.50;5.00;;;;;;;13.92;68.35;102068.17;107177;1253;107384;-66
2023/09/06 05:38:49;;;;;;;9.00;4.70;;;;;;;13.95;68.45;102064.52;107308;1256;99172;-66
2023/09/06 05:41:18;;;;;;;11.30;4.90;;;;;;;13.96;68.31;102064.39;107148;1255;99708;-66
2023/09/06 05:43:47;;;;;;;8.10;4.80;;;;;;;13.99;68.19;102058.43;107341;1254;113207;-65
2023/09/06 05:46:16;;;;;;;9.00;4.40;;;;;;;14.06;68.23;102066.48;107264;1260;109912;-66
2023/09/06 05:49:05;;;;;;;8.20;4.60;;;;;;;14.16;68.07;102065.86;107335;1257;108593;-65
2023/09/06 05:51:36;;;;;;;11.80;5.20;;;;;;;14.23;67.66;102069.04;107383;1254;99186;-65
2023/09/06 05:54:05;;;;;;;8.70;4.30;;;;;;;14.28;67.31;102071.20;107377;1256;99069;-65
2023/09/06 05:56:35;;;;;;;14.80;5.20;;;;;;;14.35;67.13;102072.61;107351;1254;113079;-64
2023/09/06 05:59:04;;;;;;;9.30;5.10;;;;;;;14.41;67.15;102075.34;107382;1256;109829;-66
2023/09/06 06:01:32;;;;;;;15.20;5.10;;;;;;;14.44;67.14;102072.86;107422;1255;108489;-64
2023/09/06 06:04:00;;;;;;;12.80;5.30;;;;;;;14.48;67.13;102074.91;107351;1256;99176;-65
2023/09/06 06:06:29;;;;;;;11.80;5.00;;;;;;;14.53;67.05;102069.97;107359;1254;99244;-65
2023/09/06 06:08:57;;;;;;;10.80;5.10;;;;;;;14.59;67.01;102070.88;107249;1257;113410;-66
2023/09/06 06:11:26;;;;;;;10.50;4.60;;;;;;;14.66;67.04;102077.77;107398;1254;109306;-66
2023/09/06 06:13:56;;;;;;;11.50;5.10;;;;;;;14.70;66.79;102078.46;107355;1257;108193;-66
2023/09/06 06:16:38;;;;;;;7.00;4.90;;;;;;;14.76;66.43;102083.95;107408;1254;99179;-66
2023/09/06 06:19:07;;;;;;;11.70;4.80;;;;;;;14.78;66.36;102081.63;107363;1255;99682;-66
2023/09/06 06:21:35;;;;;;;11.60;5.00;;;;;;;14.81;66.39;102077.41;107411;1254;112481;-67
2023/09/06 06:24:08;;;;;;;16.70;8.60;;;;;;;14.87;66.38;102070.76;107345;1257;109339;-66
2023/09/06 06:26:36;;;;;;;15.30;5.90;;;;;;;14.94;66.53;102068.86;107341;1254;107658;-67
2023/09/06 06:29:04;;;;;;;20.80;5.40;;;;;;;15.03;66.46;102068.99;107353;1253;99185;-64
2023/09/06 06:31:33;;;;;;;12.50;6.40;;;;;;;15.14;66.40;102071.29;107351;1254;99269;-67
2023/09/06 06:34:01;;;;;;;11.00;5.80;;;;;;;15.24;66.34;102069.52;107188;1256;113290;-65
2023/09/06 06:36:31;;;;;;;22.70;10.70;;;;;;;15.34;66.16;102072.61;107353;1257;109746;-65
2023/09/06 06:39:00;;;;;;;17.90;5.00;;;;;;;15.43;65.66;102075.61;107353;1253;107400;-67
2023/09/06 06:41:28;;;;;;;12.50;5.10;;;;;;;15.49;65.38;102078.89;107361;1254;99278;-66
2023/09/06 06:43:57;;;;;;;11.90;5.90;;;;;;;15.57;65.05;102077.86;107347;1254;99194;-67
2023/09/06 06:46:33;;;;;;;13.80;5.40;;;;;;;15.61;64.99;102079.11;107360;1254;112625;-65
2023/09/06 06:49:04;;;;;;;11.30;5.30;;;;;;;15.68;65.06;102075.23;107361;1257;109348;-67
2023/09/06 06:51:35;;;;;;;10.00;6.00;;;;;;;15.74;64.94;102077.38;107334;1254;108262;-67
2023/09/06 06:54:07;;;;;;;10.70;6.30;;;;;;;15.82;64.80;102074.36;107468;1254;99233;-66
2023/09/06 06:56:37;;;;;;;22.00;5.70;;;;;;;15.88;64.76;102064.45;107475;1254;99237;-65
2023/09/06 06:59:07;;;;;;;14.50;5.80;;;;;;;15.95;64.64;102065.42;107406;1257;111653;-65
2023/09/06 07:01:36;;;;;;;13.20;5.20;;;;;;;16.06;64.43;102070.44;107354;1254;109833;-65
2023/09/06 07:04:05;;;;;;;14.90;5.70;;;;;;;16.15;64.17;102073.95;107276;1259;108365;-65
2023/09/06 07:06:34;;;;;;;15.50;5.70;;;;;;;16.24;63.86;102073.48;107333;1254;99153;-65
2023/09/06 07:09:03;;;;;;;16.10;5.80;;;;;;;16.31;63.59;102075.39;107376;1254;99694;-65
2023/09/06 07:11:33;;;;;;;15.90;5.40;;;;;;;16.40;63.35;102076.38;107353;1254;113638;-65
2023/09/06 07:14:02;;;;;;;16.30;5.40;;;;;;;16.45;63.07;102075.66;107317;1254;108167;-63
2023/09/06 07:16:33;;;;;;;13.20;5.90;;;;;;;16.51;62.87;102068.40;107368;1254;106728;-65
2023/09/06 07:19:02;;;;;;;22.20;5.90;;;;;;;16.60;62.93;102068.13;107359;1256;99178;-65
2023/09/06 07:21:31;;;;;;;12.60;5.50;;;;;;;16.68;62.93;102065.45;107380;1254;99278;-65
2023/09/06 07:23:59;;;;;;;15.40;6.30;;;;;;;16.77;62.89;102058.95;107303;1254;111719;-65
2023/09/06 07:26:27;;;;;;;14.80;6.80;;;;;;;16.86;62.35;102055.56;107327;1254;108797;-65
2023/09/06 07:28:56;;;;;;;13.10;5.70;;;;;;;16.95;62.29;102058.60;107320;1254;107349;-65
2023/09/06 07:31:24;;;;;;;16.60;5.30;;;;;;;17.05;62.45;102061.39;107397;1257;100416;-65
2023/09/06 07:33:54;;;;;;;15.40;5.80;;;;;;;17.16;62.24;102059.58;107411;1254;99195;-64
2023/09/06 07:36:23;;;;;;;11.80;5.40;;;;;;;17.29;61.88;102057.65;107320;1257;112289;-65
2023/09/06 07:38:54;;;;;;;13.80;7.10;;;;;;;17.42;61.71;102051.87;107355;1256;109866;-66
2023/09/06 07:41:25;;;;;;;12.30;7.20;;;;;;;17.57;61.01;102052.05;107298;1259;107923;-64
2023/09/06 07:43:55;;;;;;;19.40;5.60;;;;;;;17.72;60.69;102049.64;107374;1254;99214;-66
2023/09/06 07:46:28;;;;;;;16.30;6.20;;;;;;;17.85;60.07;102049.68;107292;1257;99238;-67
2023/09/06 07:48:56;;;;;;;16.80;6.80;;;;;;;17.98;60.04;102043.34;107328;1256;112577;-65
2023/09/06 07:51:25;;;;;;;17.90;9.90;;;;;;;18.12;59.77;102046.42;107347;1254;109640;-64
2023/09/06 07:53:55;;;;;;;11.50;6.50;;;;;;;18.24;58.98;102046.17;107304;1256;108308;-65
2023/09/06 07:56:23;;;;;;;12.70;7.90;;;;;;;18.38;58.94;102044.94;107296;1256;99710;-65
2023/09/06 07:58:51;;;;;;;19.00;7.50;;;;;;;18.52;58.09;102046.92;107379;1256;99069;-65
2023/09/06 08:01:19;;;;;;;24.80;6.50;;;;;;;18.64;57.70;102040.06;107365;1257;111825;-64
2023/09/06 08:03:48;;;;;;;12.20;6.00;;;;;;;18.79;57.83;102040.92;107315;1257;109019;-65
2023/09/06 08:06:17;;;;;;;14.50;5.60;;;;;;;18.95;57.82;102039.88;107303;1255;107603;-64
2023/09/06 08:08:45;;;;;;;19.10;5.90;;;;;;;19.10;56.74;102042.79;107358;1257;99195;-64
2023/09/06 08:11:17;;;;;;;11.80;6.00;;;;;;;19.25;57.03;102038.56;107395;1254;98120;-65
2023/09/06 08:13:46;;;;;;;10.90;6.50;;;;;;;19.40;56.55;102040.63;107342;1254;113431;-66
2023/09/06 08:16:14;;;;;;;15.30;5.60;;;;;;;19.51;55.25;102035.45;107349;1257;110560;-65
2023/09/06 08:18:44;;;;;;;18.00;6.20;;;;;;;19.67;55.12;102032.77;107308;1253;108422;-65
2023/09/06 08:21:15;;;;;;;13.80;5.60;;;;;;;19.85;54.40;102029.11;107292;1257;99174;-65
2023/09/06 08:23:44;;;;;;;10.10;5.20;;;;;;;20.04;53.84;102028.55;107378;1254;99687;-65
2023/09/06 08:26:13;;;;;;;8.10;4.90;;;;;;;20.22;53.69;102025.82;107311;1257;113301;-65
2023/09/06 08:28:42;;;;;;;15.20;5.00;;;;;;;20.42;53.40;102022.15;107376;1257;109645;-66
2023/09/06 08:31:10;;;;;;;14.70;5.30;;;;;;;20.59;52.19;102021.16;107311;1256;108791;-66
2023/09/06 08:33:39;;;;;;;12.70;5.80;;;;;;;20.77;52.72;102020.23;107333;1254;99256;-65
2023/09/06 08:36:08;;;;;;;6.80;4.60;;;;;;;20.95;52.03;102018.06;107403;1254;99825;-63
2023/09/06 08:38:36;;;;;;;6.40;4.70;;;;;;;21.14;50.80;102011.70;107333;1254;112491;-66
2023/09/06 08:41:07;;;;;;;12.80;4.70;;;;;;;21.33;50.44;102008.08;107311;1254;109307;-65
2023/09/06 08:43:41;;;;;;;12.00;4.00;;;;;;;21.52;50.72;102012.89;107300;1257;108228;-65
2023/09/06 08:46:27;;;;;;;8.60;4.60;;;;;;;21.75;48.43;102015.19;107315;1257;99242;-66
2023/09/06 08:48:57;;;;;;;12.20;4.00;;;;;;;22.04;48.40;102012.70;107359;1256;99094;-66
2023/09/06 08:51:32;;;;;;;8.60;4.00;;;;;;;22.30;48.42;102012.51;107357;1256;113314;-66
2023/09/06 08:54:02;;;;;;;8.50;4.30;;;;;;;22.58;47.68;102007.77;107350;1254;108816;-66
2023/09/06 08:56:34;;;;;;;11.40;3.60;;;;;;;22.86;45.45;102005.88;107351;1257;106841;-69
2023/09/06 08:59:04;;;;;;;12.30;3.90;;;;;;;23.14;43.23;102010.09;107350;1254;99193;-65
2023/09/06 09:01:37;;;;;;;10.90;3.20;;;;;;;23.39;42.90;102006.30;107340;1254;99705;-64
2023/09/06 09:04:06;;;;;;;9.80;3.50;;;;;;;23.66;41.92;102003.88;107307;1254;113320;-66
2023/09/06 09:06:35;;;;;;;6.30;3.60;;;;;;;23.93;41.52;101999.56;107325;1254;109994;-66
2023/09/06 09:09:16;;;;;;;8.20;4.30;;;;;;;24.20;39.61;101987.38;107325;1254;107717;-66
2023/09/06 09:11:48;;;;;;;10.30;3.90;;;;;;;24.54;40.97;101989.61;107309;1254;99157;-65
2023/09/06 09:14:25;;;;;;;7.40;3.50;;;;;;;24.93;40.44;101987.10;107405;1257;99064;-64
2023/09/06 09:16:59;;;;;;;10.10;4.10;;;;;;;25.29;37.97;101984.28;107307;1254;112449;-66
2023/09/06 09:19:27;;;;;;;7.80;3.90;;;;;;;25.58;36.38;101981.15;107345;1257;108648;-65
2023/09/06 09:21:55;;;;;;;8.90;3.80;;;;;;;25.90;36.63;101981.52;107304;1254;107437;-65
2023/09/06 09:24:26;;;;;;;5.20;3.70;;;;;;;26.35;35.74;101972.96;107298;1254;99175;-65
2023/09/06 09:26:56;;;;;;;10.40;3.90;;;;;;;26.93;32.55;101974.84;107343;1259;99175;-65
2023/09/06 09:29:27;;;;;;;12.70;3.00;;;;;;;27.55;30.26;101976.83;107320;1256;113087;-65
2023/09/06 09:32:03;;;;;;;5.10;3.00;;;;;;;28.20;28.95;101982.38;107343;1257;109993;-66
2023/09/06 09:34:32;;;;;;;4.10;3.30;;;;;;;28.78;29.28;101977.14;107297;1257;108773;-66
2023/09/06 09:37:02;;;;;;;8.70;3.10;;;;;;;29.51;29.35;101965.66;107388;1254;99178;-67
2023/09/06 09:39:30;;;;;;;5.90;3.10;;;;;;;30.28;27.50;101964.48;107379;1256;99096;-66
2023/09/06 09:42:00;;;;;;;7.30;3.30;;;;;;;30.85;26.48;101965.41;107355;1254;112851;-65
2023/09/06 09:44:28;;;;;;;8.30;3.00;;;;;;;31.35;25.87;101969.11;107353;1256;110428;-65
2023/09/06 09:47:06;;;;;;;8.30;3.00;;;;;;;31.72;25.13;101967.10;107185;1257;108275;-64
2023/09/06 09:49:55;;;;;;;7.10;3.00;;;;;;;32.25;26.16;101964.23;107328;1256;99297;-66
2023/09/06 09:52:26;;;;;;;12.50;2.90;;;;;;;32.86;24.72;101961.46;107366;1254;99832;-66
2023/09/06 09:54:56;;;;;;;4.80;2.70;;;;;;;33.29;25.50;101957.05;107418;1257;113838;-66
2023/09/06 09:57:26;;;;;;;4.70;3.00;;;;;;;33.88;23.70;101950.20;106793;1257;765206;-66
2023/09/06 09:59:57;;;;;;;6.70;2.80;;;;;;;34.21;24.38;101955.16;107336;1257;109029;-66
2023/09/06 10:02:27;;;;;;;4.70;3.00;;;;;;;34.60;23.68;101952.27;107344;1254;99910;-65
2023/09/06 10:05:12;;;;;;;6.30;2.60;;;;;;;35.02;23.28;101954.28;107310;1255;99825;-66
2023/09/06 10:07:42;;;;;;;5.50;2.70;;;;;;;35.38;23.31;101953.27;107325;1259;113595;-66
2023/09/06 10:10:18;;;;;;;4.90;2.50;;;;;;;35.81;23.52;101951.95;107333;1257;110078;-66
2023/09/06 10:12:49;;;;;;;5.20;2.70;;;;;;;36.28;22.57;101942.72;107297;1253;107487;-65
2023/09/06 10:15:25;;;;;;;21.50;3.10;;;;;;;36.68;22.52;101940.77;107312;1254;99064;-65
2023/09/06 10:17:55;;;;;;;5.10;3.60;;;;;;;37.16;21.37;101938.29;107324;1254;99282;-66
2023/09/06 10:20:24;;;;;;;8.70;2.50;;;;;;;37.44;21.46;101936.06;107373;1257;113096;-66
2023/09/06 10:22:56;;;;;;;10.00;3.40;;;;;;;37.80;21.11;101934.02;107298;1254;108824;-65
2023/09/06 10:25:25;;;;;;;4.80;2.90;;;;;;;38.13;20.44;101930.98;107336;1254;107868;-66
2023/09/06 10:27:59;;;;;;;8.60;3.20;;;;;;;38.49;20.10;101930.44;107350;1254;99200;-66
2023/09/06 10:30:42;;;;;;;4.60;2.50;;;;;;;38.67;19.73;101933.56;107345;1257;99788;-65
2023/09/06 10:33:36;;;;;;;5.80;2.70;;;;;;;38.88;19.75;101933.59;107287;1254;114115;-65
2023/09/06 10:36:10;;;;;;;3.60;2.20;;;;;;;38.98;18.99;101929.70;107305;1254;110218;-65
2023/09/06 10:38:51;;;;;;;6.80;2.80;;;;;;;39.30;18.81;101924.98;107331;1254;106271;-66
2023/09/06 10:41:21;;;;;;;7.20;2.40;;;;;;;39.53;17.20;101916.26;107372;1254;99194;-64
2023/09/06 10:43:58;;;;;;;6.30;2.40;;;;;;;39.50;18.04;101918.60;107394;1257;99208;-66
2023/09/06 10:46:28;;;;;;;6.60;2.70;;;;;;;39.66;18.45;101916.83;107385;1254;113397;-67
2023/09/06 10:49:12;;;;;;;4.00;2.70;;;;;;;39.95;18.45;101913.98;107368;1254;108777;-66
2023/09/06 10:52:08;;;;;;;3.80;2.30;;;;;;;40.25;18.55;101908.25;107294;1254;107477;-65
2023/09/06 10:54:44;;;;;;;5.30;2.40;;;;;;;40.66;17.66;101902.77;107277;1253;99246;-67
2023/09/06 10:57:14;;;;;;;3.70;2.40;;;;;;;40.89;17.35;101900.02;107296;1254;99716;-66
2023/09/06 10:59:44;;;;;;;5.80;2.20;;;;;;;40.97;16.81;101898.88;107354;1257;113478;-66
2023/09/06 11:02:19;;;;;;;5.50;2.30;;;;;;;41.09;16.35;101893.60;107311;1256;109009;-67
2023/09/06 11:05:11;;;;;;;5.40;2.10;;;;;;;40.67;16.26;101889.70;107268;1256;108644;-65
2023/09/06 11:07:45;;;;;;;3.20;2.00;;;;;;;40.36;16.50;101889.33;107346;1257;99191;-64
2023/09/06 11:10:24;;;;;;;2.50;2.20;;;;;;;40.23;15.64;101884.28;107357;1256;99176;-66
2023/09/06 11:13:07;;;;;;;4.10;2.40;;;;;;;39.91;15.89;101882.66;107284;1254;112981;-64
2023/09/06 11:15:36;;;;;;;;;;;;;;;40.02;15.84;101879.71;107277;1257;109519;-65
2023/09/06 11:18:05;;;;;;;5.90;2.30;;;;;;;39.97;16.08;101873.02;107338;1258;108529;-66
2023/09/06 11:20:34;;;;;;;7.40;2.10;;;;;;;40.26;16.35;101873.39;107319;1254;99198;-66
2023/09/06 11:23:03;;;;;;;2.10;1.90;;;;;;;40.35;15.82;101870.52;107306;1254;99229;-67
2023/09/06 11:25:32;;;;;;;5.90;2.30;;;;;;;40.40;15.58;101866.91;107359;1254;113053;-67